Terminal Aerodrome Forecast
Issued by NWS

Home | Current Version | Previous Version | Text Only | Print | Product List | Glossary On
Versions: 1 2 3 4 5 6 7 8 9 10 11 12 13 14
388
FTUS43 KOAX 091131
TAFCDR
TAF
KCDR 091131Z 0912/1012 32008KT P6SM SKC
     FM091700 30011KT P6SM BKN050=

USA.gov is the U.S. government's official web portal to all federal, state and local government web resources and services.